sensor_id;sensor_type;location;lat;lon;timestamp;pressure;altitude;pressure_sealevel;temperature;humidity
32492;BME280;20605;49.742;18.802;2022-07-06T00:02:17;97909.80;;;16.88;100.00
32492;BME280;20605;49.742;18.802;2022-07-06T00:04:43;97906.97;;;16.91;100.00
32492;BME280;20605;49.742;18.802;2022-07-06T00:07:10;97911.38;;;16.91;100.00
32492;BME280;20605;49.742;18.802;2022-07-06T00:09:37;97916.64;;;16.91;100.00
32492;BME280;20605;49.742;18.802;2022-07-06T00:12:04;97908.75;;;16.91;100.00
32492;BME280;20605;49.742;18.802;2022-07-06T00:14:31;97912.52;;;16.94;100.00
32492;BME280;20605;49.742;18.802;2022-07-06T00:16:57;97912.44;;;16.95;100.00
32492;BME280;20605;49.742;18.802;2022-07-06T00:19:24;97912.82;;;16.96;100.00
32492;BME280;20605;49.742;18.802;2022-07-06T00:21:51;97915.83;;;16.98;100.00
32492;BME280;20605;49.742;18.802;2022-07-06T00:24:17;97910.19;;;16.96;100.00
32492;BME280;20605;49.742;18.802;2022-07-06T00:26:44;97911.20;;;16.94;100.00
32492;BME280;20605;49.742;18.802;2022-07-06T00:29:11;97915.14;;;16.87;100.00
32492;BME280;20605;49.742;18.802;2022-07-06T00:31:39;97911.91;;;16.82;100.00
32492;BME280;20605;49.742;18.802;2022-07-06T00:34:06;97915.27;;;16.77;100.00
32492;BME280;20605;49.742;18.802;2022-07-06T00:36:33;97918.44;;;16.75;100.00
32492;BME280;20605;49.742;18.802;2022-07-06T00:39:00;97921.54;;;16.74;100.00
32492;BME280;20605;49.742;18.802;2022-07-06T00:41:27;97920.77;;;16.72;100.00
32492;BME280;20605;49.742;18.802;2022-07-06T00:43:55;97924.67;;;16.65;100.00
32492;BME280;20605;49.742;18.802;2022-07-06T00:46:30;97925.81;;;16.59;100.00
32492;BME280;20605;49.742;18.802;2022-07-06T00:48:58;97926.53;;;16.54;100.00
32492;BME280;20605;49.742;18.802;2022-07-06T00:51:30;97928.47;;;16.51;100.00
32492;BME280;20605;49.742;18.802;2022-07-06T00:54:00;97935.52;;;16.50;100.00
32492;BME280;20605;49.742;18.802;2022-07-06T00:56:30;97933.05;;;16.47;100.00
32492;BME280;20605;49.742;18.802;2022-07-06T00:59:00;97933.29;;;16.43;100.00
32492;BME280;20605;49.742;18.802;2022-07-06T01:01:28;97940.33;;;16.42;100.00
32492;BME280;20605;49.742;18.802;2022-07-06T01:03:55;97940.16;;;16.45;100.00
32492;BME280;20605;49.742;18.802;2022-07-06T01:06:22;97934.60;;;16.43;100.00
32492;BME280;20605;49.742;18.802;2022-07-06T01:08:49;97934.77;;;16.40;100.00
32492;BME280;20605;49.742;18.802;2022-07-06T01:11:18;97934.93;;;16.37;100.00
32492;BME280;20605;49.742;18.802;2022-07-06T01:13:47;97935.39;;;16.36;100.00
32492;BME280;20605;49.742;18.802;2022-07-06T01:16:14;97943.20;;;16.38;100.00
32492;BME280;20605;49.742;18.802;2022-07-06T01:18:41;97935.09;;;16.34;100.00
32492;BME280;20605;49.742;18.802;2022-07-06T01:21:14;97941.66;;;16.34;100.00
32492;BME280;20605;49.742;18.802;2022-07-06T01:23:42;97935.55;;;16.33;100.00
32492;BME280;20605;49.742;18.802;2022-07-06T01:26:12;97945.22;;;16.33;100.00
32492;BME280;20605;49.742;18.802;2022-07-06T01:28:41;97948.70;;;16.33;100.00
32492;BME280;20605;49.742;18.802;2022-07-06T01:31:19;97956.66;;;16.31;100.00
32492;BME280;20605;49.742;18.802;2022-07-06T01:33:48;97953.56;;;16.32;100.00
32492;BME280;20605;49.742;18.802;2022-07-06T01:36:16;97951.41;;;16.31;100.00
32492;BME280;20605;49.742;18.802;2022-07-06T01:41:17;97954.88;;;16.32;100.00
32492;BME280;20605;49.742;18.802;2022-07-06T01:43:45;97954.34;;;16.34;100.00
32492;BME280;20605;49.742;18.802;2022-07-06T01:46:13;97951.33;;;16.33;100.00
32492;BME280;20605;49.742;18.802;2022-07-06T01:48:40;97948.78;;;16.31;100.00
32492;BME280;20605;49.742;18.802;2022-07-06T01:51:08;97944.75;;;16.33;100.00
32492;BME280;20605;49.742;18.802;2022-07-06T01:53:36;97944.98;;;16.37;100.00
32492;BME280;20605;49.742;18.802;2022-07-06T01:56:04;97939.64;;;16.39;100.00
32492;BME280;20605;49.742;18.802;2022-07-06T01:58:31;97942.57;;;16.41;100.00
32492;BME280;20605;49.742;18.802;2022-07-06T02:00:58;97944.71;;;16.50;100.00
32492;BME280;20605;49.742;18.802;2022-07-06T02:03:25;97930.86;;;16.55;100.00
32492;BME280;20605;49.742;18.802;2022-07-06T02:05:52;97938.11;;;16.59;100.00
32492;BME280;20605;49.742;18.802;2022-07-06T02:08:19;97946.30;;;16.61;100.00
32492;BME280;20605;49.742;18.802;2022-07-06T02:10:46;97940.37;;;16.67;100.00
32492;BME280;20605;49.742;18.802;2022-07-06T02:13:13;97930.45;;;16.72;100.00
32492;BME280;20605;49.742;18.802;2022-07-06T02:15:40;97926.72;;;16.76;100.00
32492;BME280;20605;49.742;18.802;2022-07-06T02:18:06;97933.81;;;16.82;100.00
32492;BME280;20605;49.742;18.802;2022-07-06T02:20:33;97936.19;;;16.87;100.00
32492;BME280;20605;49.742;18.802;2022-07-06T02:23:00;97928.21;;;16.88;100.00
32492;BME280;20605;49.742;18.802;2022-07-06T02:25:26;97926.83;;;16.97;100.00
32492;BME280;20605;49.742;18.802;2022-07-06T02:27:53;97926.73;;;16.99;100.00
32492;BME280;20605;49.742;18.802;2022-07-06T02:30:20;97928.19;;;17.04;100.00
32492;BME280;20605;49.742;18.802;2022-07-06T02:32:47;97923.34;;;17.12;100.00
32492;BME280;20605;49.742;18.802;2022-07-06T02:35:14;97928.60;;;17.12;100.00
32492;BME280;20605;49.742;18.802;2022-07-06T02:37:41;97930.59;;;17.16;100.00
32492;BME280;20605;49.742;18.802;2022-07-06T02:40:09;97937.77;;;17.21;100.00
32492;BME280;20605;49.742;18.802;2022-07-06T02:42:36;97938.62;;;17.21;100.00
32492;BME280;20605;49.742;18.802;2022-07-06T02:45:04;97944.14;;;17.17;100.00
32492;BME280;20605;49.742;18.802;2022-07-06T02:47:32;97951.36;;;17.13;100.00
32492;BME280;20605;49.742;18.802;2022-07-06T02:49:59;97952.16;;;17.07;100.00
32492;BME280;20605;49.742;18.802;2022-07-06T02:52:26;97953.48;;;17.07;100.00
32492;BME280;20605;49.742;18.802;2022-07-06T02:54:53;97955.43;;;17.03;100.00
32492;BME280;20605;49.742;18.802;2022-07-06T02:57:20;97959.08;;;17.01;100.00
32492;BME280;20605;49.742;18.802;2022-07-06T02:59:47;97964.77;;;16.93;100.00
32492;BME280;20605;49.742;18.802;2022-07-06T03:02:16;97973.32;;;16.89;100.00
32492;BME280;20605;49.742;18.802;2022-07-06T03:04:44;97972.80;;;16.83;100.00
32492;BME280;20605;49.742;18.802;2022-07-06T03:07:11;97969.66;;;16.76;100.00
32492;BME280;20605;49.742;18.802;2022-07-06T03:09:37;97968.42;;;16.75;100.00
32492;BME280;20605;49.742;18.802;2022-07-06T03:12:05;97968.97;;;16.73;100.00
32492;BME280;20605;49.742;18.802;2022-07-06T03:14:34;97973.70;;;16.66;100.00
32492;BME280;20605;49.742;18.802;2022-07-06T03:17:01;97979.56;;;16.62;100.00
32492;BME280;20605;49.742;18.802;2022-07-06T03:19:27;97983.67;;;16.59;100.00
32492;BME280;20605;49.742;18.802;2022-07-06T03:21:55;97981.20;;;16.56;100.00
32492;BME280;20605;49.742;18.802;2022-07-06T03:24:21;97978.34;;;16.52;100.00
32492;BME280;20605;49.742;18.802;2022-07-06T03:26:49;97977.58;;;16.50;100.00
32492;BME280;20605;49.742;18.802;2022-07-06T03:29:16;97976.10;;;16.53;100.00
32492;BME280;20605;49.742;18.802;2022-07-06T03:31:43;97970.82;;;16.62;100.00
32492;BME280;20605;49.742;18.802;2022-07-06T03:34:09;97980.50;;;16.70;100.00
32492;BME280;20605;49.742;18.802;2022-07-06T03:36:37;97976.06;;;16.79;100.00
32492;BME280;20605;49.742;18.802;2022-07-06T03:39:06;97978.06;;;16.83;100.00
32492;BME280;20605;49.742;18.802;2022-07-06T03:41:33;97977.90;;;16.86;100.00
32492;BME280;20605;49.742;18.802;2022-07-06T03:44:00;97978.84;;;16.92;100.00
32492;BME280;20605;49.742;18.802;2022-07-06T03:46:28;97975.03;;;16.98;100.00
32492;BME280;20605;49.742;18.802;2022-07-06T03:48:55;97975.17;;;17.03;100.00
32492;BME280;20605;49.742;18.802;2022-07-06T03:51:22;97979.24;;;17.09;100.00
32492;BME280;20605;49.742;18.802;2022-07-06T03:53:49;97983.63;;;17.17;100.00
32492;BME280;20605;49.742;18.802;2022-07-06T03:56:17;97986.72;;;17.16;100.00
32492;BME280;20605;49.742;18.802;2022-07-06T03:58:59;97991.22;;;17.14;100.00
32492;BME280;20605;49.742;18.802;2022-07-06T04:01:28;97996.87;;;17.15;100.00
32492;BME280;20605;49.742;18.802;2022-07-06T04:03:56;97999.58;;;17.14;100.00
32492;BME280;20605;49.742;18.802;2022-07-06T04:06:24;98001.75;;;17.14;100.00
32492;BME280;20605;49.742;18.802;2022-07-06T04:08:51;98001.23;;;17.08;100.00
32492;BME280;20605;49.742;18.802;2022-07-06T04:11:18;98004.83;;;16.98;100.00
32492;BME280;20605;49.742;18.802;2022-07-06T04:13:46;98006.09;;;16.91;100.00
32492;BME280;20605;49.742;18.802;2022-07-06T04:16:13;98000.64;;;16.87;100.00
32492;BME280;20605;49.742;18.802;2022-07-06T04:18:40;98003.52;;;16.82;100.00
32492;BME280;20605;49.742;18.802;2022-07-06T04:21:07;98001.77;;;16.74;100.00
32492;BME280;20605;49.742;18.802;2022-07-06T04:23:35;98014.23;;;16.71;100.00
32492;BME280;20605;49.742;18.802;2022-07-06T04:26:03;98013.38;;;16.70;100.00
32492;BME280;20605;49.742;18.802;2022-07-06T04:28:31;98013.23;;;16.65;100.00
32492;BME280;20605;49.742;18.802;2022-07-06T04:30:58;98015.91;;;16.63;100.00
32492;BME280;20605;49.742;18.802;2022-07-06T04:33:25;98019.86;;;16.63;100.00
32492;BME280;20605;49.742;18.802;2022-07-06T04:35:52;98027.45;;;16.60;100.00
32492;BME280;20605;49.742;18.802;2022-07-06T04:38:20;98025.58;;;16.62;100.00
32492;BME280;20605;49.742;18.802;2022-07-06T04:40:47;98024.66;;;16.63;100.00
32492;BME280;20605;49.742;18.802;2022-07-06T04:43:15;98020.58;;;16.67;100.00
32492;BME280;20605;49.742;18.802;2022-07-06T04:45:42;98020.89;;;16.69;100.00
32492;BME280;20605;49.742;18.802;2022-07-06T04:48:10;98016.15;;;16.76;100.00
32492;BME280;20605;49.742;18.802;2022-07-06T04:50:36;98017.91;;;16.84;100.00
32492;BME280;20605;49.742;18.802;2022-07-06T04:53:04;98022.54;;;16.87;100.00
32492;BME280;20605;49.742;18.802;2022-07-06T04:55:32;98019.14;;;16.85;100.00
32492;BME280;20605;49.742;18.802;2022-07-06T04:57:59;98009.47;;;16.86;100.00
32492;BME280;20605;49.742;18.802;2022-07-06T05:00:26;98007.14;;;16.88;100.00
32492;BME280;20605;49.742;18.802;2022-07-06T05:02:53;98011.58;;;16.95;100.00
32492;BME280;20605;49.742;18.802;2022-07-06T05:05:21;98008.74;;;17.07;100.00
32492;BME280;20605;49.742;18.802;2022-07-06T05:07:48;98010.23;;;17.19;100.00
32492;BME280;20605;49.742;18.802;2022-07-06T05:10:15;98009.14;;;17.23;100.00
32492;BME280;20605;49.742;18.802;2022-07-06T05:12:44;98011.34;;;17.31;100.00
32492;BME280;20605;49.742;18.802;2022-07-06T05:15:11;98013.64;;;17.37;100.00
32492;BME280;20605;49.742;18.802;2022-07-06T05:17:38;98019.76;;;17.38;100.00
32492;BME280;20605;49.742;18.802;2022-07-06T05:20:06;98023.23;;;17.38;100.00
32492;BME280;20605;49.742;18.802;2022-07-06T05:22:35;98014.06;;;17.45;100.00
32492;BME280;20605;49.742;18.802;2022-07-06T05:25:02;98016.27;;;17.53;100.00
32492;BME280;20605;49.742;18.802;2022-07-06T05:27:28;98018.09;;;17.59;100.00
32492;BME280;20605;49.742;18.802;2022-07-06T05:29:55;98026.27;;;17.71;100.00
32492;BME280;20605;49.742;18.802;2022-07-06T05:32:22;98021.77;;;17.73;100.00
32492;BME280;20605;49.742;18.802;2022-07-06T05:34:50;98023.58;;;17.79;100.00
32492;BME280;20605;49.742;18.802;2022-07-06T05:37:18;98023.70;;;17.85;100.00
32492;BME280;20605;49.742;18.802;2022-07-06T05:39:45;98023.05;;;17.88;100.00
32492;BME280;20605;49.742;18.802;2022-07-06T05:42:13;98014.14;;;17.98;100.00
32492;BME280;20605;49.742;18.802;2022-07-06T05:44:41;98006.82;;;18.03;100.00
32492;BME280;20605;49.742;18.802;2022-07-06T05:47:08;98011.66;;;18.18;100.00
32492;BME280;20605;49.742;18.802;2022-07-06T05:49:54;98010.06;;;18.30;100.00
32492;BME280;20605;49.742;18.802;2022-07-06T05:52:42;98019.58;;;18.32;100.00
32492;BME280;20605;49.742;18.802;2022-07-06T05:55:12;98017.80;;;18.40;100.00
32492;BME280;20605;49.742;18.802;2022-07-06T05:57:40;98028.44;;;18.38;100.00
32492;BME280;20605;49.742;18.802;2022-07-06T06:00:07;98032.58;;;18.35;100.00
32492;BME280;20605;49.742;18.802;2022-07-06T06:02:38;98041.63;;;18.38;100.00
32492;BME280;20605;49.742;18.802;2022-07-06T06:05:08;98043.70;;;18.40;100.00
32492;BME280;20605;49.742;18.802;2022-07-06T06:07:37;98041.63;;;18.38;100.00
32492;BME280;20605;49.742;18.802;2022-07-06T06:10:08;98046.34;;;18.40;100.00
32492;BME280;20605;49.742;18.802;2022-07-06T06:12:36;98048.23;;;18.45;100.00
32492;BME280;20605;49.742;18.802;2022-07-06T06:15:04;98051.14;;;18.41;100.00
32492;BME280;20605;49.742;18.802;2022-07-06T06:17:32;98064.89;;;18.39;100.00
32492;BME280;20605;49.742;18.802;2022-07-06T06:20:00;98061.86;;;18.31;100.00
32492;BME280;20605;49.742;18.802;2022-07-06T06:22:26;98062.88;;;18.28;100.00
32492;BME280;20605;49.742;18.802;2022-07-06T06:24:53;98067.66;;;18.21;100.00
32492;BME280;20605;49.742;18.802;2022-07-06T06:27:20;98068.05;;;18.22;100.00
32492;BME280;20605;49.742;18.802;2022-07-06T06:29:47;98072.30;;;18.18;100.00
32492;BME280;20605;49.742;18.802;2022-07-06T06:32:14;98077.64;;;18.09;100.00
32492;BME280;20605;49.742;18.802;2022-07-06T06:34:40;98083.81;;;18.01;100.00
32492;BME280;20605;49.742;18.802;2022-07-06T06:37:07;98087.61;;;17.88;100.00
32492;BME280;20605;49.742;18.802;2022-07-06T06:39:34;98088.59;;;17.79;100.00
32492;BME280;20605;49.742;18.802;2022-07-06T06:42:01;98095.53;;;17.73;100.00
32492;BME280;20605;49.742;18.802;2022-07-06T06:44:29;98097.48;;;17.69;100.00
32492;BME280;20605;49.742;18.802;2022-07-06T06:46:56;98096.46;;;17.72;100.00
32492;BME280;20605;49.742;18.802;2022-07-06T06:49:23;98096.33;;;17.82;100.00
32492;BME280;20605;49.742;18.802;2022-07-06T06:51:50;98100.75;;;17.81;100.00
32492;BME280;20605;49.742;18.802;2022-07-06T06:54:16;98103.13;;;17.70;100.00
32492;BME280;20605;49.742;18.802;2022-07-06T06:56:43;98104.23;;;17.66;100.00
32492;BME280;20605;49.742;18.802;2022-07-06T06:59:10;98100.38;;;17.56;100.00
32492;BME280;20605;49.742;18.802;2022-07-06T07:01:37;98098.11;;;17.41;100.00
32492;BME280;20605;49.742;18.802;2022-07-06T07:04:03;98098.06;;;17.34;100.00
32492;BME280;20605;49.742;18.802;2022-07-06T07:06:32;98097.77;;;17.32;100.00
32492;BME280;20605;49.742;18.802;2022-07-06T07:08:59;98100.70;;;17.34;100.00
32492;BME280;20605;49.742;18.802;2022-07-06T07:11:26;98103.90;;;17.48;100.00
32492;BME280;20605;49.742;18.802;2022-07-06T07:13:53;98106.58;;;17.55;100.00
32492;BME280;20605;49.742;18.802;2022-07-06T07:16:20;98099.44;;;17.66;100.00
32492;BME280;20605;49.742;18.802;2022-07-06T07:18:46;98103.75;;;17.98;100.00
32492;BME280;20605;49.742;18.802;2022-07-06T07:21:13;98103.82;;;18.12;100.00
32492;BME280;20605;49.742;18.802;2022-07-06T07:23:40;98102.88;;;18.13;100.00
32492;BME280;20605;49.742;18.802;2022-07-06T07:26:08;98116.06;;;18.13;100.00
32492;BME280;20605;49.742;18.802;2022-07-06T07:28:40;98105.87;;;18.07;100.00
32492;BME280;20605;49.742;18.802;2022-07-06T07:31:08;98118.08;;;18.01;100.00
32492;BME280;20605;49.742;18.802;2022-07-06T07:33:34;98126.88;;;17.93;100.00
32492;BME280;20605;49.742;18.802;2022-07-06T07:36:01;98125.35;;;17.89;100.00
32492;BME280;20605;49.742;18.802;2022-07-06T07:38:28;98118.42;;;17.95;100.00
32492;BME280;20605;49.742;18.802;2022-07-06T07:40:55;98131.69;;;17.93;100.00
32492;BME280;20605;49.742;18.802;2022-07-06T07:43:21;98121.75;;;17.83;100.00
32492;BME280;20605;49.742;18.802;2022-07-06T07:45:48;98136.83;;;17.64;100.00
32492;BME280;20605;49.742;18.802;2022-07-06T07:48:15;98135.50;;;17.48;100.00
32492;BME280;20605;49.742;18.802;2022-07-06T07:50:42;98140.63;;;17.42;100.00
32492;BME280;20605;49.742;18.802;2022-07-06T07:53:09;98140.38;;;17.47;100.00
32492;BME280;20605;49.742;18.802;2022-07-06T07:55:35;98141.72;;;17.63;100.00
32492;BME280;20605;49.742;18.802;2022-07-06T07:58:02;98147.84;;;17.87;100.00
32492;BME280;20605;49.742;18.802;2022-07-06T08:00:30;98156.67;;;18.25;100.00
32492;BME280;20605;49.742;18.802;2022-07-06T08:02:56;98154.50;;;18.47;100.00
32492;BME280;20605;49.742;18.802;2022-07-06T08:05:23;98156.22;;;18.55;100.00
32492;BME280;20605;49.742;18.802;2022-07-06T08:07:50;98162.23;;;18.66;100.00
32492;BME280;20605;49.742;18.802;2022-07-06T08:10:18;98159.06;;;18.82;100.00
32492;BME280;20605;49.742;18.802;2022-07-06T08:12:45;98165.04;;;19.00;100.00
32492;BME280;20605;49.742;18.802;2022-07-06T08:15:12;98162.14;;;19.12;100.00
32492;BME280;20605;49.742;18.802;2022-07-06T08:17:39;98162.98;;;19.12;100.00
32492;BME280;20605;49.742;18.802;2022-07-06T08:20:07;98173.25;;;19.03;100.00
32492;BME280;20605;49.742;18.802;2022-07-06T08:22:42;98175.41;;;18.96;100.00
32492;BME280;20605;49.742;18.802;2022-07-06T08:25:14;98176.05;;;18.93;100.00
32492;BME280;20605;49.742;18.802;2022-07-06T08:27:41;98175.52;;;19.09;100.00
32492;BME280;20605;49.742;18.802;2022-07-06T08:30:09;98169.03;;;19.29;100.00
32492;BME280;20605;49.742;18.802;2022-07-06T08:32:38;98166.02;;;19.42;100.00
32492;BME280;20605;49.742;18.802;2022-07-06T08:35:05;98169.13;;;19.55;100.00
32492;BME280;20605;49.742;18.802;2022-07-06T08:37:33;98169.03;;;19.64;100.00
32492;BME280;20605;49.742;18.802;2022-07-06T08:40:00;98171.58;;;19.73;100.00
32492;BME280;20605;49.742;18.802;2022-07-06T08:42:30;98172.71;;;19.69;100.00
32492;BME280;20605;49.742;18.802;2022-07-06T08:45:00;98167.81;;;19.55;100.00
32492;BME280;20605;49.742;18.802;2022-07-06T08:47:28;98169.23;;;19.61;100.00
32492;BME280;20605;49.742;18.802;2022-07-06T08:49:56;98165.25;;;19.75;100.00
32492;BME280;20605;49.742;18.802;2022-07-06T08:52:24;98171.36;;;19.90;100.00
32492;BME280;20605;49.742;18.802;2022-07-06T08:54:51;98164.72;;;20.04;100.00
32492;BME280;20605;49.742;18.802;2022-07-06T08:57:19;98162.02;;;20.26;100.00
32492;BME280;20605;49.742;18.802;2022-07-06T08:59:46;98155.01;;;20.39;100.00
32492;BME280;20605;49.742;18.802;2022-07-06T09:02:13;98154.36;;;20.75;100.00
32492;BME280;20605;49.742;18.802;2022-07-06T09:04:42;98155.30;;;21.44;100.00
32492;BME280;20605;49.742;18.802;2022-07-06T09:07:10;98149.02;;;22.02;100.00
32492;BME280;20605;49.742;18.802;2022-07-06T09:09:37;98150.16;;;22.16;100.00
32492;BME280;20605;49.742;18.802;2022-07-06T09:12:12;98142.13;;;23.34;100.00
32492;BME280;20605;49.742;18.802;2022-07-06T09:14:39;98148.13;;;24.08;100.00
32492;BME280;20605;49.742;18.802;2022-07-06T09:17:06;98143.25;;;24.19;100.00
32492;BME280;20605;49.742;18.802;2022-07-06T09:19:34;98144.02;;;24.04;100.00
32492;BME280;20605;49.742;18.802;2022-07-06T09:22:06;98137.80;;;24.32;100.00
32492;BME280;20605;49.742;18.802;2022-07-06T09:24:42;98121.64;;;24.50;100.00
32492;BME280;20605;49.742;18.802;2022-07-06T09:27:15;98118.31;;;24.63;100.00
32492;BME280;20605;49.742;18.802;2022-07-06T09:29:43;98099.68;;;26.35;100.00
32492;BME280;20605;49.742;18.802;2022-07-06T09:32:11;98099.68;;;26.35;100.00
32492;BME280;20605;49.742;18.802;2022-07-06T09:37:11;98122.38;;;27.03;100.00
32492;BME280;20605;49.742;18.802;2022-07-06T09:39:39;98121.55;;;27.25;100.00
32492;BME280;20605;49.742;18.802;2022-07-06T09:42:06;98114.67;;;27.50;100.00
32492;BME280;20605;49.742;18.802;2022-07-06T09:44:41;98108.75;;;28.11;100.00
32492;BME280;20605;49.742;18.802;2022-07-06T09:47:11;98117.34;;;28.29;100.00
32492;BME280;20605;49.742;18.802;2022-07-06T09:49:39;98123.33;;;28.13;100.00
32492;BME280;20605;49.742;18.802;2022-07-06T09:52:08;98132.13;;;27.78;100.00
32492;BME280;20605;49.742;18.802;2022-07-06T09:54:36;98133.05;;;27.12;100.00
32492;BME280;20605;49.742;18.802;2022-07-06T09:57:05;98138.91;;;26.44;100.00
32492;BME280;20605;49.742;18.802;2022-07-06T09:59:33;98130.05;;;25.75;100.00
32492;BME280;20605;49.742;18.802;2022-07-06T10:02:04;98134.14;;;25.12;100.00
32492;BME280;20605;49.742;18.802;2022-07-06T10:04:33;98143.16;;;24.58;100.00
32492;BME280;20605;49.742;18.802;2022-07-06T10:07:04;98141.34;;;24.10;100.00
32492;BME280;20605;49.742;18.802;2022-07-06T10:09:33;98145.16;;;23.63;100.00
32492;BME280;20605;49.742;18.802;2022-07-06T10:12:05;98144.42;;;23.38;100.00
32492;BME280;20605;49.742;18.802;2022-07-06T10:14:35;98147.91;;;23.22;100.00
32492;BME280;20605;49.742;18.802;2022-07-06T10:17:03;98164.39;;;22.92;100.00
32492;BME280;20605;49.742;18.802;2022-07-06T10:19:32;98157.92;;;22.49;100.00
32492;BME280;20605;49.742;18.802;2022-07-06T10:22:00;98151.45;;;22.10;100.00
32492;BME280;20605;49.742;18.802;2022-07-06T10:24:29;98163.33;;;21.68;100.00
32492;BME280;20605;49.742;18.802;2022-07-06T10:26:59;98163.42;;;21.36;100.00
32492;BME280;20605;49.742;18.802;2022-07-06T10:29:26;98167.73;;;21.11;100.00
32492;BME280;20605;49.742;18.802;2022-07-06T10:31:54;98162.94;;;20.91;100.00
32492;BME280;20605;49.742;18.802;2022-07-06T10:34:21;98158.33;;;20.88;100.00
32492;BME280;20605;49.742;18.802;2022-07-06T10:36:50;98159.77;;;20.99;100.00
32492;BME280;20605;49.742;18.802;2022-07-06T10:39:38;98165.39;;;21.07;100.00
32492;BME280;20605;49.742;18.802;2022-07-06T10:42:40;98169.05;;;21.11;100.00
32492;BME280;20605;49.742;18.802;2022-07-06T10:46:05;98172.92;;;21.13;100.00
32492;BME280;20605;49.742;18.802;2022-07-06T10:50:53;98176.62;;;21.10;100.00
32492;BME280;20605;49.742;18.802;2022-07-06T10:53:28;98182.30;;;21.11;100.00
32492;BME280;20605;49.742;18.802;2022-07-06T10:56:05;98180.66;;;21.16;100.00
32492;BME280;20605;49.742;18.802;2022-07-06T10:58:47;98178.52;;;21.28;100.00
32492;BME280;20605;49.742;18.802;2022-07-06T11:01:18;98188.75;;;21.40;100.00
32492;BME280;20605;49.742;18.802;2022-07-06T11:06:38;98173.52;;;21.62;100.00
32492;BME280;20605;49.742;18.802;2022-07-06T11:09:10;98168.02;;;21.83;100.00
32492;BME280;20605;49.742;18.802;2022-07-06T11:11:39;98166.30;;;22.13;100.00
32492;BME280;20605;49.742;18.802;2022-07-06T11:14:17;98164.98;;;22.37;100.00
32492;BME280;20605;49.742;18.802;2022-07-06T11:19:19;98185.36;;;22.60;100.00
32492;BME280;20605;49.742;18.802;2022-07-06T11:22:09;98185.39;;;22.66;100.00
32492;BME280;20605;49.742;18.802;2022-07-06T11:24:38;98179.30;;;22.53;100.00
32492;BME280;20605;49.742;18.802;2022-07-06T11:27:07;98183.70;;;22.41;100.00
32492;BME280;20605;49.742;18.802;2022-07-06T11:29:35;98185.59;;;22.33;100.00
32492;BME280;20605;49.742;18.802;2022-07-06T11:32:05;98178.00;;;22.34;100.00
32492;BME280;20605;49.742;18.802;2022-07-06T11:34:37;98179.98;;;22.43;100.00
32492;BME280;20605;49.742;18.802;2022-07-06T11:37:13;98176.39;;;22.50;100.00
32492;BME280;20605;49.742;18.802;2022-07-06T11:39:42;98169.91;;;22.60;100.00
32492;BME280;20605;49.742;18.802;2022-07-06T11:42:12;98169.37;;;22.73;100.00
32492;BME280;20605;49.742;18.802;2022-07-06T11:44:41;98172.11;;;22.90;100.00
32492;BME280;20605;49.742;18.802;2022-07-06T11:47:10;98168.78;;;23.10;100.00
32492;BME280;20605;49.742;18.802;2022-07-06T11:49:42;98164.21;;;23.18;100.00
32492;BME280;20605;49.742;18.802;2022-07-06T11:52:12;98167.23;;;23.19;100.00
32492;BME280;20605;49.742;18.802;2022-07-06T11:54:39;98163.62;;;23.25;100.00
32492;BME280;20605;49.742;18.802;2022-07-06T11:57:11;98168.33;;;23.22;100.00
32492;BME280;20605;49.742;18.802;2022-07-06T11:59:40;98168.80;;;23.16;100.00
32492;BME280;20605;49.742;18.802;2022-07-06T12:02:10;98173.88;;;23.19;100.00
32492;BME280;20605;49.742;18.802;2022-07-06T12:04:42;98165.42;;;23.25;100.00
32492;BME280;20605;49.742;18.802;2022-07-06T12:07:12;98163.00;;;23.44;100.00
32492;BME280;20605;49.742;18.802;2022-07-06T12:09:42;98155.90;;;23.84;100.00
32492;BME280;20605;49.742;18.802;2022-07-06T12:12:11;98149.60;;;23.90;100.00
32492;BME280;20605;49.742;18.802;2022-07-06T12:14:40;98155.02;;;24.11;100.00
32492;BME280;20605;49.742;18.802;2022-07-06T12:17:13;98159.20;;;24.42;100.00
32492;BME280;20605;49.742;18.802;2022-07-06T12:19:38;98147.66;;;24.52;100.00
32492;BME280;20605;49.742;18.802;2022-07-06T12:22:06;98143.88;;;24.60;100.00
32492;BME280;20605;49.742;18.802;2022-07-06T12:24:35;98149.83;;;24.73;100.00
32492;BME280;20605;49.742;18.802;2022-07-06T12:27:11;98143.58;;;24.90;98.66
32492;BME280;20605;49.742;18.802;2022-07-06T12:29:43;98146.17;;;24.80;97.31
32492;BME280;20605;49.742;18.802;2022-07-06T12:32:16;98148.69;;;24.66;97.82
32492;BME280;20605;49.742;18.802;2022-07-06T12:34:44;98149.28;;;24.70;96.95
32492;BME280;20605;49.742;18.802;2022-07-06T12:37:13;98144.35;;;24.81;97.58
32492;BME280;20605;49.742;18.802;2022-07-06T12:39:46;98143.67;;;24.94;97.31
32492;BME280;20605;49.742;18.802;2022-07-06T12:42:14;98138.12;;;24.97;95.50
32492;BME280;20605;49.742;18.802;2022-07-06T12:44:50;98142.76;;;24.84;95.69
32492;BME280;20605;49.742;18.802;2022-07-06T12:47:20;98143.05;;;25.01;96.48
32492;BME280;20605;49.742;18.802;2022-07-06T12:50:04;98140.25;;;25.24;95.98
32492;BME280;20605;49.742;18.802;2022-07-06T12:52:32;98149.54;;;25.29;96.06
32492;BME280;20605;49.742;18.802;2022-07-06T12:55:00;98148.05;;;25.16;94.62
32492;BME280;20605;49.742;18.802;2022-07-06T12:57:41;98140.81;;;24.86;93.31
32492;BME280;20605;49.742;18.802;2022-07-06T13:00:12;98150.89;;;24.61;94.49
32492;BME280;20605;49.742;18.802;2022-07-06T13:02:39;98148.48;;;24.58;94.47